Time;durP1;ratioP1;P1;durP2;ratioP2;P2;SDS_P1;SDS_P2;PMS_P1;PMS_P2;Temp;Humidity;BMP_temperature;BMP_pressure;BME280_temperature;BME280_humidity;BME280_pressure;Samples;Min_cycle;Max_cycle;Signal;HPM_P1;HPM_P2
2022/06/22 00:05:33;;;;;;;12.20;3.10;;;;;;;12.04;67.33;98246.17;433780;1267;108708;-42
2022/06/22 00:15:38;;;;;;;8.40;3.20;;;;;;;11.92;67.82;98252.19;433620;1268;97903;-40
2022/06/22 00:25:42;;;;;;;7.10;4.50;;;;;;;11.75;67.90;98245.23;433623;1268;109036;-43
2022/06/22 00:35:51;;;;;;;8.70;3.90;;;;;;;11.41;68.46;98240.55;433500;1268;97913;-43
2022/06/22 00:45:56;;;;;;;5.00;4.10;;;;;;;11.32;68.84;98245.95;433720;1268;111028;-41
2022/06/22 00:56:05;;;;;;;7.70;3.60;;;;;;;11.29;69.20;98252.71;433601;1268;108822;-43
2022/06/22 01:06:15;;;;;;;6.60;2.90;;;;;;;11.33;69.43;98273.18;434216;1260;98043;-41
2022/06/22 01:16:26;;;;;;;6.50;3.50;;;;;;;11.34;69.58;98291.95;433405;1270;108669;-42
2022/06/22 01:36:50;;;;;;;6.80;3.50;;;;;;;11.37;69.64;98300.95;433414;1269;111076;-41
2022/06/22 01:47:13;;;;;;;5.30;3.50;;;;;;;11.28;69.63;98322.77;433311;1269;109349;-42
2022/06/22 01:57:23;;;;;;;10.60;4.00;;;;;;;11.28;70.10;98305.79;432982;1270;471989;-45
2022/06/22 02:27:55;;;;;;;9.30;4.90;;;;;;;10.92;70.53;98310.67;433232;1269;112152;-40
2022/06/22 02:48:21;;;;;;;7.10;4.60;;;;;;;10.77;70.86;98344.00;433164;1268;98009;-42
2022/06/22 02:58:29;;;;;;;7.50;5.00;;;;;;;10.79;70.82;98355.83;433478;1268;108954;-43
2022/06/22 03:08:33;;;;;;;5.50;4.30;;;;;;;10.76;71.20;98344.84;433392;1269;97790;-42
2022/06/22 03:18:43;;;;;;;5.40;3.40;;;;;;;12.15;70.58;98347.70;433243;1270;111157;-42
2022/06/22 03:28:47;;;;;;;8.00;3.70;;;;;;;15.89;68.49;98339.14;433368;1270;108954;-41
2022/06/22 03:38:58;;;;;;;7.90;4.00;;;;;;;18.38;65.44;98325.23;433432;1269;97572;-42
2022/06/22 03:49:02;;;;;;;7.40;4.10;;;;;;;20.17;63.06;98305.71;433158;1270;109393;-45
2022/06/22 03:59:07;;;;;;;3.50;3.00;;;;;;;21.69;61.15;98283.58;433581;1269;97997;-42
2022/06/22 04:09:13;;;;;;;6.10;3.90;;;;;;;22.94;59.71;98292.69;433348;1268;98451;-41
2022/06/22 04:19:19;;;;;;;4.80;2.90;;;;;;;24.65;57.60;98300.66;433246;1269;108747;-40
2022/06/22 04:29:27;;;;;;;;;;;;;;;25.21;55.48;98303.38;433112;1269;96930;-41
2022/06/22 04:39:33;;;;;;;8.10;4.50;;;;;;;25.53;54.27;98318.00;433284;1270;111407;-41
2022/06/22 04:49:46;;;;;;;5.90;4.10;;;;;;;25.05;53.35;98348.20;433196;1268;108910;-41
2022/06/22 04:59:51;;;;;;;7.10;3.60;;;;;;;24.02;53.38;98357.89;433323;1270;97482;-41
2022/06/22 05:09:54;;;;;;;5.50;3.70;;;;;;;24.20;53.23;98356.77;433424;1270;111869;-41
2022/06/22 05:20:02;;;;;;;4.60;4.00;;;;;;;23.45;52.35;98356.52;433433;1269;98588;-41
2022/06/22 05:30:08;;;;;;;4.90;3.60;;;;;;;21.42;53.23;98364.77;433369;1270;97999;-43
2022/06/22 05:40:14;;;;;;;5.10;4.60;;;;;;;21.00;54.34;98374.32;433315;1270;111348;-41
2022/06/22 05:50:18;;;;;;;5.50;4.30;;;;;;;21.20;54.38;98374.49;433217;1269;109030;-41
2022/06/22 06:00:26;;;;;;;5.40;3.90;;;;;;;22.30;54.63;98379.14;433289;1269;97905;-42
2022/06/22 06:10:32;;;;;;;7.80;3.80;;;;;;;23.33;52.93;98373.27;433240;1270;98018;-41
2022/06/22 06:20:41;;;;;;;6.10;2.00;;;;;;;23.14;52.20;98373.05;433244;1270;110317;-45
2022/06/22 06:30:49;;;;;;;5.00;2.00;;;;;;;23.18;51.00;98377.73;433260;1269;108829;-41
2022/06/22 06:40:55;;;;;;;2.70;1.80;;;;;;;23.21;50.59;98383.61;433213;1270;97935;-45
2022/06/22 06:51:03;;;;;;;1.80;1.50;;;;;;;23.36;50.26;98382.02;433368;1268;111258;-41
2022/06/22 07:01:12;;;;;;;4.10;2.00;;;;;;;23.80;50.33;98386.94;433142;1269;108750;-41
2022/06/22 07:11:19;;;;;;;2.10;1.30;;;;;;;24.22;49.91;98379.71;433416;1268;97581;-44
2022/06/22 07:21:26;;;;;;;4.20;2.20;;;;;;;24.59;49.03;98372.06;433549;1268;110927;-42
2022/06/22 07:31:31;;;;;;;4.30;1.70;;;;;;;24.65;48.29;98363.60;433317;1270;109013;-41
2022/06/22 07:41:36;;;;;;;2.90;1.10;;;;;;;24.70;47.00;98361.60;433338;1270;97938;-43
2022/06/22 07:51:43;;;;;;;1.50;1.10;;;;;;;24.49;45.23;98355.33;433308;1268;97920;-41
2022/06/22 08:01:50;;;;;;;4.90;1.50;;;;;;;24.39;43.46;98352.79;433333;1270;108834;-44
2022/06/22 08:12:01;;;;;;;1.50;1.10;;;;;;;24.32;42.63;98359.30;433363;1269;97897;-42
2022/06/22 08:22:09;;;;;;;1.40;1.30;;;;;;;24.27;41.58;98372.89;433293;1270;111155;-41
2022/06/22 08:32:17;;;;;;;2.40;1.70;;;;;;;24.09;40.57;98370.08;433422;1268;108795;-41
2022/06/22 08:42:28;;;;;;;19.80;1.90;;;;;;;24.09;40.50;98355.87;433420;1269;97893;-43
2022/06/22 08:52:51;;;;;;;1.80;1.10;;;;;;;23.96;39.92;98367.45;433434;1268;111396;-40
2022/06/22 09:03:39;;;;;;;1.80;1.00;;;;;;;24.09;40.44;98362.28;433215;1268;108906;-41
2022/06/22 09:14:20;;;;;;;3.80;1.10;;;;;;;24.22;40.11;98361.28;433380;1269;97931;-41
2022/06/22 09:24:33;;;;;;;1.60;1.40;;;;;;;24.12;40.44;98362.86;433532;1269;111113;-41
2022/06/22 09:35:06;;;;;;;1.20;0.80;;;;;;;23.97;40.32;98368.73;433400;1270;108743;-41
2022/06/22 09:45:18;;;;;;;3.70;1.80;;;;;;;24.00;40.52;98371.70;433180;1271;98152;-41
2022/06/22 10:06:21;;;;;;;9.60;2.50;;;;;;;24.01;40.50;98359.88;433087;1269;108984;-42
2022/06/22 10:16:30;;;;;;;3.60;1.00;;;;;;;23.91;40.56;98357.52;433039;1271;97551;-41
2022/06/22 10:37:12;;;;;;;2.80;0.80;;;;;;;24.44;39.40;98354.35;432803;1269;108533;-45
2022/06/22 10:47:17;;;;;;;1.50;0.90;;;;;;;24.27;39.45;98353.11;432710;1270;96682;-41
2022/06/22 10:57:33;;;;;;;7.10;1.10;;;;;;;24.44;38.95;98344.13;432903;1269;112000;-40
2022/06/22 11:07:44;;;;;;;5.40;1.40;;;;;;;24.34;39.21;98344.77;432886;1268;107864;-40
2022/06/22 11:17:55;;;;;;;2.70;1.20;;;;;;;24.62;38.92;98352.74;433139;1268;97910;-41
2022/06/22 11:39:02;;;;;;;8.80;3.60;;;;;;;23.89;38.40;98369.48;432875;1268;108798;-42
2022/06/22 11:49:25;;;;;;;4.70;1.20;;;;;;;23.62;39.49;98363.42;433045;1268;98597;-41
2022/06/22 11:59:43;;;;;;;3.60;0.80;;;;;;;24.20;39.90;98345.21;433195;1268;111274;-42
2022/06/22 12:09:52;;;;;;;1.60;0.60;;;;;;;24.33;39.18;98338.58;433157;1270;108819;-41
2022/06/22 12:19:56;;;;;;;1.20;0.70;;;;;;;24.47;39.43;98340.43;433258;1270;96610;-42
2022/06/22 12:30:23;;;;;;;3.50;1.00;;;;;;;24.73;39.01;98329.57;433201;1269;109000;-40
2022/06/22 12:50:43;;;;;;;1.50;0.90;;;;;;;24.51;38.86;98318.17;433256;1268;111192;-41
2022/06/22 13:00:47;;;;;;;3.40;1.20;;;;;;;24.82;38.21;98318.31;433247;1268;108838;-41
2022/06/22 13:10:56;;;;;;;11.20;1.50;;;;;;;24.09;38.24;98323.17;433224;1268;97904;-41
2022/06/22 13:20:59;;;;;;;1.70;1.10;;;;;;;24.46;38.48;98329.23;433288;1268;110756;-41
2022/06/22 13:31:09;;;;;;;2.80;0.90;;;;;;;24.87;37.99;98314.16;433143;1268;97933;-40
2022/06/22 13:41:15;;;;;;;6.50;0.90;;;;;;;24.65;37.60;98310.98;433260;1268;96708;-41
2022/06/22 14:01:50;;;;;;;3.60;1.20;;;;;;;25.00;37.33;98321.16;432884;1268;108473;-41
2022/06/22 14:11:53;;;;;;;2.40;1.20;;;;;;;24.95;37.48;98321.20;433106;1268;97924;-41
2022/06/22 14:21:58;;;;;;;3.50;1.50;;;;;;;24.80;37.69;98316.86;433177;1268;97931;-41
2022/06/22 14:32:02;;;;;;;2.00;0.90;;;;;;;24.41;37.65;98313.92;433207;1268;110588;-42
2022/06/22 14:42:13;;;;;;;2.00;0.80;;;;;;;24.45;37.82;98299.56;433423;1268;97916;-41
2022/06/22 14:52:19;;;;;;;1.70;0.80;;;;;;;24.33;37.75;98290.92;433446;1268;109029;-40
2022/06/22 15:02:32;;;;;;;2.80;0.90;;;;;;;24.22;37.48;98276.61;433315;1268;97795;-41
2022/06/22 15:23:12;;;;;;;4.00;0.90;;;;;;;24.00;37.62;98262.23;433244;1268;108922;-44
2022/06/22 15:33:23;;;;;;;;;;;;;;;23.82;37.63;98262.84;433480;1268;97929;-41
2022/06/22 15:43:49;;;;;;;1.70;1.00;;;;;;;23.82;38.18;98252.80;433592;1268;110955;-43
2022/06/22 15:54:06;;;;;;;4.40;1.20;;;;;;;23.88;38.31;98256.11;433088;1269;107190;-43
2022/06/22 16:04:12;;;;;;;4.80;1.40;;;;;;;23.93;37.92;98249.36;433808;1268;98543;-41
2022/06/22 16:14:14;;;;;;;3.00;1.10;;;;;;;23.71;37.97;98234.09;433687;1268;108425;-42
2022/06/22 16:34:23;;;;;;;4.30;1.00;;;;;;;23.60;38.47;98221.75;433644;1268;97977;-41
2022/06/22 16:44:27;;;;;;;4.20;1.80;;;;;;;23.43;38.35;98214.08;433269;1269;111053;-41
2022/06/22 16:54:31;;;;;;;5.70;1.20;;;;;;;23.25;38.67;98208.66;433589;1268;107809;-43
2022/06/22 17:04:43;;;;;;;4.50;1.30;;;;;;;22.93;38.61;98215.21;433794;1268;97961;-41
2022/06/22 17:14:51;;;;;;;2.00;1.40;;;;;;;22.79;38.77;98224.11;433391;1268;111935;-44
2022/06/22 17:25:00;;;;;;;3.00;2.00;;;;;;;22.69;38.91;98233.28;433740;1268;108166;-42
2022/06/22 17:45:23;;;;;;;10.00;2.00;;;;;;;22.31;39.55;98241.98;433458;1268;111016;-40
2022/06/22 17:55:27;;;;;;;2.50;1.60;;;;;;;22.15;40.06;98241.85;433700;1268;108787;-45
2022/06/22 18:05:39;;;;;;;2.40;1.50;;;;;;;21.95;40.90;98245.77;433410;1268;97905;-42
2022/06/22 18:25:55;;;;;;;5.70;1.70;;;;;;;21.40;42.42;98258.80;433498;1268;98580;-42
2022/06/22 18:36:01;;;;;;;2.70;1.50;;;;;;;21.09;43.20;98262.27;433548;1268;111080;-41
2022/06/22 18:46:04;;;;;;;3.00;1.90;;;;;;;20.68;44.16;98270.86;433528;1268;109257;-41
2022/06/22 18:56:19;;;;;;;19.20;9.50;;;;;;;20.19;44.91;98276.55;433645;1268;98577;-44
2022/06/22 19:06:26;;;;;;;17.10;6.90;;;;;;;19.62;46.10;98287.79;433635;1268;111374;-44
2022/06/22 19:16:29;;;;;;;7.70;3.30;;;;;;;19.12;47.26;98296.96;433694;1268;109813;-43
2022/06/22 19:26:33;;;;;;;14.40;4.40;;;;;;;18.67;48.53;98306.27;433125;1269;97926;-44
2022/06/22 19:36:37;;;;;;;9.90;4.90;;;;;;;18.23;49.18;98309.10;433389;1268;109090;-43
2022/06/22 19:46:50;;;;;;;12.60;5.50;;;;;;;17.86;50.03;98309.22;433713;1268;97878;-42
2022/06/22 19:56:58;;;;;;;8.70;5.50;;;;;;;17.56;51.04;98314.63;433522;1268;111216;-42
2022/06/22 20:07:04;;;;;;;7.70;4.60;;;;;;;17.27;51.70;98319.27;433551;1268;108538;-42
2022/06/22 20:17:10;;;;;;;13.00;5.00;;;;;;;17.09;52.63;98323.45;433315;1268;98516;-42
2022/06/22 20:27:16;;;;;;;11.20;3.70;;;;;;;16.95;53.12;98318.84;433566;1270;108991;-42
2022/06/22 20:37:23;;;;;;;8.50;3.90;;;;;;;16.59;53.58;98326.41;433450;1269;97916;-43
2022/06/22 20:47:38;;;;;;;9.10;4.50;;;;;;;16.33;54.30;98329.64;433709;1270;110544;-41
2022/06/22 20:57:41;;;;;;;12.10;4.10;;;;;;;16.11;54.92;98338.96;433291;1268;108384;-42
2022/06/22 21:07:47;;;;;;;7.00;4.90;;;;;;;15.93;55.41;98344.20;433449;1270;97903;-42
2022/06/22 21:17:51;;;;;;;8.50;4.90;;;;;;;15.92;56.13;98345.10;433505;1269;111086;-42
2022/06/22 21:28:05;;;;;;;9.20;6.60;;;;;;;15.86;56.62;98349.55;433567;1270;107890;-42
2022/06/22 21:38:08;;;;;;;13.40;7.50;;;;;;;15.68;57.32;98347.92;433419;1270;97897;-43
2022/06/22 21:58:53;;;;;;;11.90;7.00;;;;;;;15.26;58.56;98359.07;433480;1269;109016;-41
2022/06/22 22:19:30;;;;;;;11.10;7.50;;;;;;;15.33;60.03;98358.25;433288;1268;109126;-42
2022/06/22 22:29:37;;;;;;;13.20;7.60;;;;;;;14.99;60.02;98362.29;433037;1269;97919;-42
2022/06/22 22:39:41;;;;;;;13.80;7.30;;;;;;;14.67;60.60;98371.29;433417;1268;111167;-42
2022/06/22 22:49:46;;;;;;;12.40;7.10;;;;;;;14.58;61.33;98373.01;433150;1269;108175;-41
2022/06/22 22:59:53;;;;;;;18.50;9.20;;;;;;;14.61;61.78;98372.96;433205;1268;97949;-42
2022/06/22 23:20:11;;;;;;;22.20;11.50;;;;;;;14.24;62.53;98375.98;433138;1268;97957;-42
2022/06/22 23:30:20;;;;;;;28.90;8.20;;;;;;;14.10;62.82;98367.95;433071;1269;109670;-42
2022/06/22 23:40:23;;;;;;;;;;;;;;;13.92;62.99;98364.34;433326;1269;108829;-45
2022/06/22 23:50:26;;;;;;;19.30;7.00;;;;;;;13.76;63.33;98368.08;433278;1268;97938;-41
